Time;durP1;ratioP1;P1;durP2;ratioP2;P2;SDS_P1;SDS_P2;PMS_P1;PMS_P2;Temp;Humidity;BMP_temperature;BMP_pressure;BME280_temperature;BME280_humidity;BME280_pressure;Samples;Min_cycle;Max_cycle;Signal;HPM_P1;HPM_P2
2023/03/01 00:02:20;;;;;;;13.77;6.38;;;;;;;;;;6332065;22;20024;-82
2023/03/01 00:04:56;;;;;;;14.95;6.82;;;;;;;;;;6305571;22;20028;-82
2023/03/01 00:07:29;;;;;;;15.90;6.78;;;;;;;;;;6333203;22;20411;-82
2023/03/01 00:10:04;;;;;;;19.20;8.88;;;;;;;;;;6332223;22;20081;-82
2023/03/01 00:12:37;;;;;;;20.58;9.63;;;;;;;;;;6332666;22;20027;-82
2023/03/01 00:15:11;;;;;;;20.70;10.18;;;;;;;;;;6334005;22;20711;-82
2023/03/01 00:17:46;;;;;;;20.77;9.30;;;;;;;;;;6332502;22;20112;-82
2023/03/01 00:20:20;;;;;;;20.25;8.65;;;;;;;;;;6334249;22;20109;-82
2023/03/01 00:22:54;;;;;;;20.73;8.80;;;;;;;;;;6332761;22;20030;-82
2023/03/01 00:25:29;;;;;;;17.05;7.95;;;;;;;;;;6332533;22;20457;-82
2023/03/01 00:28:03;;;;;;;18.80;8.40;;;;;;;;;;6305475;22;20439;-82
2023/03/01 00:30:36;;;;;;;13.32;6.70;;;;;;;;;;6333456;22;20031;-82
2023/03/01 00:33:09;;;;;;;14.45;7.05;;;;;;;;;;6331764;22;20015;-82
2023/03/01 00:35:42;;;;;;;15.60;7.35;;;;;;;;;;6331594;22;20027;-81
2023/03/01 00:38:17;;;;;;;14.57;6.68;;;;;;;;;;6332069;22;20046;-82
2023/03/01 00:40:50;;;;;;;12.90;6.20;;;;;;;;;;6332600;22;20780;-82
2023/03/01 00:43:25;;;;;;;14.05;6.47;;;;;;;;;;6333770;22;20739;-82
2023/03/01 00:46:03;;;;;;;15.38;6.75;;;;;;;;;;6333491;22;20023;-82
2023/03/01 00:48:37;;;;;;;11.77;5.63;;;;;;;;;;6331761;22;20031;-82
2023/03/01 00:51:15;;;;;;;12.82;5.65;;;;;;;;;;6333187;22;20066;-82
2023/03/01 00:53:52;;;;;;;13.13;6.22;;;;;;;;;;6333298;22;20016;-82
2023/03/01 00:56:25;;;;;;;12.68;6.07;;;;;;;;;;6333285;22;20023;-82
2023/03/01 00:58:59;;;;;;;12.32;5.80;;;;;;;;;;6333970;22;20034;-82
2023/03/01 01:01:34;;;;;;;12.73;6.68;;;;;;;;;;6336490;22;20027;-82
2023/03/01 01:04:08;;;;;;;11.93;6.00;;;;;;;;;;6333467;22;20100;-82
2023/03/01 01:06:44;;;;;;;12.95;5.72;;;;;;;;;;6309232;22;20104;-82
2023/03/01 01:09:19;;;;;;;13.48;6.43;;;;;;;;;;6307695;22;20081;-82
2023/03/01 01:11:53;;;;;;;14.52;6.70;;;;;;;;;;6309269;22;21007;-82
2023/03/01 01:14:27;;;;;;;16.92;6.38;;;;;;;;;;6334897;22;20024;-82
2023/03/01 01:17:02;;;;;;;16.58;6.93;;;;;;;;;;6307390;22;20050;-82
2023/03/01 01:19:36;;;;;;;14.35;6.75;;;;;;;;;;6334759;22;20023;-82
2023/03/01 01:22:09;;;;;;;16.25;6.63;;;;;;;;;;6335141;22;20070;-82
2023/03/01 01:24:44;;;;;;;14.45;6.63;;;;;;;;;;6306150;22;20035;-82
2023/03/01 01:27:18;;;;;;;17.45;6.30;;;;;;;;;;6335423;22;20106;-82
2023/03/01 01:29:54;;;;;;;14.48;7.03;;;;;;;;;;6335029;22;20031;-82
2023/03/01 01:32:28;;;;;;;12.40;6.22;;;;;;;;;;6335183;22;20035;-82
2023/03/01 01:35:03;;;;;;;12.75;6.40;;;;;;;;;;6333327;22;20495;-82
2023/03/01 01:37:37;;;;;;;12.57;6.07;;;;;;;;;;6335410;22;20035;-82
2023/03/01 01:40:10;;;;;;;14.32;6.50;;;;;;;;;;6334371;22;20015;-82
2023/03/01 01:42:45;;;;;;;14.60;6.90;;;;;;;;;;6332486;22;20491;-82
2023/03/01 01:45:37;;;;;;;14.07;7.20;;;;;;;;;;6334584;22;20015;-82
2023/03/01 01:48:17;;;;;;;16.25;7.10;;;;;;;;;;6335311;22;20031;-82
2023/03/01 01:50:54;;;;;;;13.23;6.63;;;;;;;;;;6333528;22;20027;-82
2023/03/01 01:53:29;;;;;;;11.90;6.50;;;;;;;;;;6333267;22;20472;-82
2023/03/01 01:56:03;;;;;;;15.90;6.72;;;;;;;;;;6335449;22;20506;-81
2023/03/01 01:58:37;;;;;;;12.00;6.30;;;;;;;;;;6334861;22;20035;-82
2023/03/01 02:01:12;;;;;;;12.27;6.35;;;;;;;;;;6334019;22;20566;-82
2023/03/01 02:03:47;;;;;;;13.13;6.40;;;;;;;;;;6333303;22;20468;-82
2023/03/01 02:06:32;;;;;;;12.30;6.13;;;;;;;;;;6335235;22;20015;-82
2023/03/01 02:09:12;;;;;;;12.82;6.40;;;;;;;;;;6307249;22;20030;-82
2023/03/01 02:11:46;;;;;;;13.00;6.45;;;;;;;;;;6332705;22;20023;-81
2023/03/01 02:14:20;;;;;;;12.57;6.00;;;;;;;;;;6333866;22;20029;-82
2023/03/01 02:16:55;;;;;;;11.88;6.30;;;;;;;;;;6333523;22;20443;-81
2023/03/01 02:19:41;;;;;;;12.95;6.07;;;;;;;;;;6334689;22;20081;-82
2023/03/01 02:22:22;;;;;;;14.77;6.68;;;;;;;;;;6333399;22;20047;-82
2023/03/01 02:25:05;;;;;;;13.23;5.50;;;;;;;;;;6333708;22;20035;-82
2023/03/01 02:27:54;;;;;;;13.25;6.65;;;;;;;;;;6335555;22;20019;-84
2023/03/01 02:30:29;;;;;;;12.45;5.60;;;;;;;;;;6334470;22;20023;-82
2023/03/01 02:33:04;;;;;;;12.40;6.47;;;;;;;;;;6333427;22;20023;-82
2023/03/01 02:35:41;;;;;;;13.88;5.68;;;;;;;;;;6334874;22;20073;-83
2023/03/01 02:38:16;;;;;;;14.15;5.75;;;;;;;;;;6335179;22;20023;-82
2023/03/01 02:40:52;;;;;;;12.60;6.45;;;;;;;;;;6331782;22;20028;-82
2023/03/01 02:43:27;;;;;;;14.32;6.13;;;;;;;;;;6332638;22;20177;-82
2023/03/01 02:46:21;;;;;;;14.60;5.97;;;;;;;;;;6333514;22;20510;-82
2023/03/01 02:48:57;;;;;;;15.18;6.72;;;;;;;;;;6308243;22;20023;-82
2023/03/01 02:51:52;;;;;;;14.82;6.63;;;;;;;;;;6334243;22;20030;-82
2023/03/01 02:54:37;;;;;;;13.75;6.38;;;;;;;;;;6319579;22;20076;-82
2023/03/01 02:57:10;;;;;;;13.68;6.53;;;;;;;;;;6334287;22;20024;-81
2023/03/01 02:59:44;;;;;;;15.43;5.55;;;;;;;;;;6333222;22;20034;-82
2023/03/01 03:02:35;;;;;;;17.20;6.35;;;;;;;;;;6333838;22;20491;-82
2023/03/01 03:05:12;;;;;;;13.15;6.40;;;;;;;;;;6333589;22;20480;-81
2023/03/01 03:07:46;;;;;;;13.05;6.93;;;;;;;;;;6333054;22;20077;-82
2023/03/01 03:10:26;;;;;;;14.25;6.22;;;;;;;;;;6332717;22;20027;-82
2023/03/01 03:13:08;;;;;;;13.25;6.95;;;;;;;;;;6333344;22;20023;-82
2023/03/01 03:15:42;;;;;;;16.58;6.75;;;;;;;;;;6333253;22;20027;-82
2023/03/01 03:18:18;;;;;;;13.98;7.05;;;;;;;;;;6335113;22;20830;-82
2023/03/01 03:20:52;;;;;;;14.73;7.20;;;;;;;;;;6306896;22;20767;-82
2023/03/01 03:23:26;;;;;;;17.05;7.50;;;;;;;;;;6332764;22;20027;-82
2023/03/01 03:26:00;;;;;;;19.80;7.45;;;;;;;;;;6306852;22;20023;-81
2023/03/01 03:28:39;;;;;;;14.80;7.65;;;;;;;;;;6333088;22;20058;-82
2023/03/01 03:31:12;;;;;;;17.45;7.32;;;;;;;;;;6332843;22;20077;-81
2023/03/01 03:33:47;;;;;;;13.32;7.53;;;;;;;;;;6305860;22;20026;-81
2023/03/01 03:36:21;;;;;;;16.20;7.13;;;;;;;;;;6333154;22;20471;-81
2023/03/01 03:38:56;;;;;;;24.90;7.45;;;;;;;;;;6333638;22;20464;-81
2023/03/01 03:41:29;;;;;;;14.88;7.90;;;;;;;;;;6333093;22;20015;-81
2023/03/01 03:44:03;;;;;;;16.23;8.13;;;;;;;;;;6331242;22;20011;-81
2023/03/01 03:46:36;;;;;;;16.42;7.65;;;;;;;;;;6334646;22;20031;-83
2023/03/01 03:49:10;;;;;;;19.75;8.38;;;;;;;;;;6332639;22;20027;-82
2023/03/01 03:51:43;;;;;;;17.35;7.82;;;;;;;;;;6331314;22;20031;-82
2023/03/01 03:54:18;;;;;;;15.25;7.57;;;;;;;;;;6331080;22;20023;-81
2023/03/01 03:56:52;;;;;;;16.52;7.53;;;;;;;;;;6333938;22;20031;-81
2023/03/01 03:59:26;;;;;;;16.88;6.93;;;;;;;;;;6332490;22;20935;-81
2023/03/01 04:02:00;;;;;;;16.83;8.05;;;;;;;;;;6332454;22;20027;-81
2023/03/01 04:04:34;;;;;;;15.98;7.63;;;;;;;;;;6330652;22;20573;-81
2023/03/01 04:07:07;;;;;;;15.43;7.72;;;;;;;;;;6333113;22;20030;-81
2023/03/01 04:09:42;;;;;;;16.23;7.70;;;;;;;;;;6333125;22;20026;-81
2023/03/01 04:12:20;;;;;;;16.70;8.07;;;;;;;;;;6330260;22;20484;-81
2023/03/01 04:14:54;;;;;;;16.02;8.23;;;;;;;;;;6332460;22;20047;-82
2023/03/01 04:17:28;;;;;;;19.45;8.00;;;;;;;;;;6332140;22;20027;-82
2023/03/01 04:20:05;;;;;;;13.95;7.03;;;;;;;;;;6333134;22;20074;-81
2023/03/01 04:22:37;;;;;;;16.33;7.82;;;;;;;;;;6304873;22;20522;-82
2023/03/01 04:25:13;;;;;;;15.40;8.00;;;;;;;;;;6333427;22;20100;-81
2023/03/01 04:27:46;;;;;;;17.02;7.55;;;;;;;;;;6305456;22;20026;-81
2023/03/01 04:30:25;;;;;;;14.43;7.35;;;;;;;;;;6306902;22;20026;-81
2023/03/01 04:32:58;;;;;;;15.73;7.68;;;;;;;;;;6306117;22;20023;-81
2023/03/01 04:35:32;;;;;;;15.45;7.68;;;;;;;;;;6335431;22;20019;-81
2023/03/01 04:38:06;;;;;;;14.93;6.43;;;;;;;;;;6332405;22;20019;-82
2023/03/01 04:40:42;;;;;;;17.00;7.55;;;;;;;;;;6333507;22;20031;-83
2023/03/01 04:43:17;;;;;;;13.77;6.70;;;;;;;;;;6307754;22;20501;-81
2023/03/01 04:45:50;;;;;;;14.88;7.13;;;;;;;;;;6304876;22;20039;-82
2023/03/01 04:48:24;;;;;;;13.25;6.72;;;;;;;;;;6332292;22;20034;-81
2023/03/01 04:50:59;;;;;;;14.65;7.05;;;;;;;;;;6333672;22;20476;-81
2023/03/01 04:53:35;;;;;;;15.63;7.40;;;;;;;;;;6334024;22;20502;-81
2023/03/01 04:56:08;;;;;;;15.05;7.25;;;;;;;;;;6306933;22;20024;-81
2023/03/01 04:58:42;;;;;;;17.50;6.45;;;;;;;;;;6332307;22;20030;-82
2023/03/01 05:01:18;;;;;;;13.20;6.63;;;;;;;;;;6333365;22;20035;-82
2023/03/01 05:03:51;;;;;;;14.73;6.95;;;;;;;;;;6332852;22;20025;-81
2023/03/01 05:06:26;;;;;;;15.73;6.75;;;;;;;;;;6333987;22;20027;-82
2023/03/01 05:09:00;;;;;;;15.55;7.28;;;;;;;;;;6330301;22;20031;-81
2023/03/01 05:11:35;;;;;;;19.98;6.30;;;;;;;;;;6334611;22;20058;-81
2023/03/01 05:14:08;;;;;;;14.23;7.22;;;;;;;;;;6333529;22;20042;-81
2023/03/01 05:16:43;;;;;;;20.20;7.50;;;;;;;;;;6334766;22;20077;-83
2023/03/01 05:19:22;;;;;;;17.20;7.18;;;;;;;;;;6321228;22;20293;-82
2023/03/01 05:22:03;;;;;;;17.25;7.03;;;;;;;;;;6272803;22;20103;-83
2023/03/01 05:24:31;;;;;;;17.10;7.03;;;;;;;;;;6302478;22;20095;-82
2023/03/01 05:26:58;;;;;;;17.35;6.80;;;;;;;;;;6276879;22;20016;-82
2023/03/01 05:29:25;;;;;;;15.63;7.10;;;;;;;;;;6304953;22;20020;-82
2023/03/01 05:31:52;;;;;;;18.60;7.65;;;;;;;;;;6304742;22;20020;-83
2023/03/01 05:34:19;;;;;;;15.48;6.97;;;;;;;;;;6276046;22;20028;-82
2023/03/01 05:36:45;;;;;;;16.88;8.23;;;;;;;;;;6303607;22;20764;-83
2023/03/01 05:39:12;;;;;;;15.23;7.10;;;;;;;;;;6304141;22;20070;-82
2023/03/01 05:41:40;;;;;;;16.27;7.60;;;;;;;;;;6303888;22;20435;-83
2023/03/01 05:44:07;;;;;;;16.52;7.57;;;;;;;;;;6274812;22;20525;-81
2023/03/01 05:46:33;;;;;;;17.02;8.73;;;;;;;;;;6304798;22;20024;-81
2023/03/01 05:49:00;;;;;;;20.27;9.15;;;;;;;;;;6304698;22;20023;-82
2023/03/01 05:51:26;;;;;;;18.63;8.13;;;;;;;;;;6275404;22;20142;-83
2023/03/01 05:53:52;;;;;;;17.27;8.20;;;;;;;;;;6302012;22;20483;-81
2023/03/01 05:56:19;;;;;;;15.40;7.45;;;;;;;;;;6303198;22;20024;-83
2023/03/01 05:58:49;;;;;;;16.15;7.80;;;;;;;;;;6277101;22;20769;-82
2023/03/01 06:01:15;;;;;;;18.55;7.97;;;;;;;;;;6303336;22;20059;-83
2023/03/01 06:03:42;;;;;;;18.35;8.18;;;;;;;;;;6302390;22;20107;-81
2023/03/01 06:06:08;;;;;;;15.68;7.78;;;;;;;;;;6304518;22;20371;-82
2023/03/01 06:08:34;;;;;;;16.10;7.70;;;;;;;;;;6305680;22;20028;-81
2023/03/01 06:11:01;;;;;;;19.20;7.97;;;;;;;;;;6303927;22;20107;-82
2023/03/01 06:13:27;;;;;;;17.73;9.38;;;;;;;;;;6302329;22;20386;-81
2023/03/01 06:15:53;;;;;;;19.40;9.02;;;;;;;;;;6303730;22;20036;-82
2023/03/01 06:18:20;;;;;;;20.20;9.07;;;;;;;;;;6305256;22;20468;-83
2023/03/01 06:20:52;;;;;;;18.45;8.95;;;;;;;;;;6303745;22;20039;-83
2023/03/01 06:23:18;;;;;;;19.63;8.98;;;;;;;;;;6303295;22;20954;-82
2023/03/01 06:25:45;;;;;;;21.63;9.48;;;;;;;;;;6304306;22;20020;-83
2023/03/01 06:28:11;;;;;;;20.75;8.68;;;;;;;;;;6304315;22;20062;-82
2023/03/01 06:30:40;;;;;;;19.95;9.75;;;;;;;;;;6303418;22;20019;-83
2023/03/01 06:33:07;;;;;;;19.65;8.73;;;;;;;;;;6310584;22;20205;-81
2023/03/01 06:35:33;;;;;;;18.13;8.70;;;;;;;;;;6284211;22;20058;-81
2023/03/01 06:38:01;;;;;;;18.10;9.18;;;;;;;;;;6312019;22;20486;-81
2023/03/01 06:40:27;;;;;;;19.33;9.23;;;;;;;;;;6311935;22;20019;-81
2023/03/01 06:42:54;;;;;;;18.13;8.40;;;;;;;;;;6307983;22;20016;-81
2023/03/01 06:45:20;;;;;;;15.90;8.32;;;;;;;;;;6312330;22;20024;-82
2023/03/01 06:47:47;;;;;;;18.20;8.80;;;;;;;;;;6283735;22;20027;-82
2023/03/01 06:50:14;;;;;;;21.05;9.75;;;;;;;;;;6309907;22;20024;-81
2023/03/01 06:52:40;;;;;;;18.15;8.57;;;;;;;;;;6311238;22;20015;-81
2023/03/01 06:55:07;;;;;;;17.20;8.80;;;;;;;;;;6311265;22;20020;-81
2023/03/01 06:57:33;;;;;;;23.00;9.35;;;;;;;;;;6313536;22;20025;-82
2023/03/01 07:00:00;;;;;;;19.05;9.20;;;;;;;;;;6310321;22;20030;-81
2023/03/01 07:02:26;;;;;;;17.75;8.50;;;;;;;;;;6282080;22;20015;-82
2023/03/01 07:04:52;;;;;;;20.52;8.77;;;;;;;;;;6309043;22;20024;-81
2023/03/01 07:07:19;;;;;;;17.73;8.77;;;;;;;;;;6310490;22;20028;-81
2023/03/01 07:09:46;;;;;;;18.75;9.57;;;;;;;;;;6282376;22;20023;-81
2023/03/01 07:12:13;;;;;;;21.90;10.05;;;;;;;;;;6308968;22;20026;-81
2023/03/01 07:14:39;;;;;;;20.80;10.43;;;;;;;;;;6309267;22;20031;-81
2023/03/01 07:17:06;;;;;;;20.40;9.77;;;;;;;;;;6307167;22;20113;-81
2023/03/01 07:19:32;;;;;;;25.80;10.50;;;;;;;;;;6307770;22;20028;-81
2023/03/01 07:21:59;;;;;;;22.98;10.68;;;;;;;;;;6307561;22;20034;-80
2023/03/01 07:24:26;;;;;;;21.40;10.20;;;;;;;;;;6307076;22;20074;-82
2023/03/01 07:26:53;;;;;;;18.48;9.70;;;;;;;;;;6309240;22;20110;-82
2023/03/01 07:29:19;;;;;;;24.15;10.77;;;;;;;;;;6277878;22;20103;-81
2023/03/01 07:31:46;;;;;;;21.67;10.75;;;;;;;;;;6280289;22;20026;-81
2023/03/01 07:34:12;;;;;;;25.08;9.93;;;;;;;;;;6279908;22;20796;-82
2023/03/01 07:36:39;;;;;;;23.05;10.30;;;;;;;;;;6311071;22;20016;-82
2023/03/01 07:39:05;;;;;;;20.35;10.43;;;;;;;;;;6310714;22;20030;-82
2023/03/01 07:41:32;;;;;;;19.83;10.32;;;;;;;;;;6283777;22;20024;-81
2023/03/01 07:43:58;;;;;;;24.38;10.45;;;;;;;;;;6308112;22;20023;-81
2023/03/01 07:46:25;;;;;;;21.80;9.80;;;;;;;;;;6281490;22;20030;-81
2023/03/01 07:48:51;;;;;;;21.90;10.40;;;;;;;;;;6308383;22;20102;-82
2023/03/01 07:51:17;;;;;;;25.10;10.88;;;;;;;;;;6309744;22;20027;-81
2023/03/01 07:53:47;;;;;;;20.83;10.45;;;;;;;;;;6311736;22;20028;-84
2023/03/01 07:56:16;;;;;;;23.75;11.27;;;;;;;;;;6283418;22;20079;-81
2023/03/01 07:58:43;;;;;;;22.23;10.70;;;;;;;;;;6311041;22;20027;-82
2023/03/01 08:01:11;;;;;;;23.52;10.98;;;;;;;;;;6311345;22;20096;-82
2023/03/01 08:03:37;;;;;;;23.85;10.88;;;;;;;;;;6310533;22;20027;-81
2023/03/01 08:06:05;;;;;;;22.40;11.30;;;;;;;;;;6310680;22;20019;-82
2023/03/01 08:08:32;;;;;;;24.05;10.70;;;;;;;;;;6312053;22;20075;-82
2023/03/01 08:11:00;;;;;;;24.15;11.55;;;;;;;;;;6309988;22;20020;-82
2023/03/01 08:13:26;;;;;;;24.80;10.70;;;;;;;;;;6309427;22;20023;-82
2023/03/01 08:15:53;;;;;;;21.42;10.48;;;;;;;;;;6280609;22;20020;-82
2023/03/01 08:18:20;;;;;;;24.48;11.27;;;;;;;;;;6310431;22;20509;-82
2023/03/01 08:20:47;;;;;;;22.75;10.70;;;;;;;;;;6283182;22;20058;-81
2023/03/01 08:23:13;;;;;;;21.58;10.45;;;;;;;;;;6307750;22;20020;-82
2023/03/01 08:25:40;;;;;;;24.13;10.27;;;;;;;;;;6308768;22;20515;-82
2023/03/01 08:28:06;;;;;;;22.48;11.02;;;;;;;;;;6280907;22;20074;-82
2023/03/01 08:30:33;;;;;;;22.33;10.38;;;;;;;;;;6310605;22;20020;-82
2023/03/01 08:33:00;;;;;;;24.45;11.38;;;;;;;;;;6307655;22;20012;-82
2023/03/01 08:35:26;;;;;;;22.98;10.48;;;;;;;;;;6306283;22;20058;-82
2023/03/01 08:37:53;;;;;;;24.02;9.18;;;;;;;;;;6305281;22;20028;-82
2023/03/01 08:40:19;;;;;;;25.50;10.35;;;;;;;;;;6306036;22;20032;-83
2023/03/01 08:42:45;;;;;;;19.35;9.18;;;;;;;;;;6305825;22;20515;-83
2023/03/01 08:45:13;;;;;;;26.17;9.07;;;;;;;;;;6278208;22;20028;-83
2023/03/01 08:47:40;;;;;;;18.73;9.45;;;;;;;;;;6307315;22;20035;-83
2023/03/01 08:50:07;;;;;;;16.05;8.73;;;;;;;;;;6307756;22;20020;-83
2023/03/01 08:52:33;;;;;;;19.25;9.27;;;;;;;;;;6307660;22;20011;-83
2023/03/01 08:55:01;;;;;;;17.63;8.60;;;;;;;;;;6278267;22;20024;-83
2023/03/01 08:57:27;;;;;;;18.60;9.05;;;;;;;;;;6307342;22;20095;-83
2023/03/01 08:59:55;;;;;;;17.67;8.43;;;;;;;;;;6304288;22;20959;-83
2023/03/01 09:02:22;;;;;;;18.80;8.93;;;;;;;;;;6304125;22;20012;-83
2023/03/01 09:04:48;;;;;;;16.52;8.45;;;;;;;;;;6275003;22;20925;-84
2023/03/01 09:07:15;;;;;;;19.33;9.18;;;;;;;;;;6302765;22;20023;-84
2023/03/01 09:09:41;;;;;;;14.90;8.68;;;;;;;;;;6304798;22;20023;-84
2023/03/01 09:12:08;;;;;;;17.27;8.23;;;;;;;;;;6275886;22;20039;-84
2023/03/01 09:14:34;;;;;;;17.17;8.02;;;;;;;;;;6301848;22;20020;-84
2023/03/01 09:17:02;;;;;;;17.65;8.13;;;;;;;;;;6302507;22;20024;-84
2023/03/01 09:19:30;;;;;;;13.95;6.78;;;;;;;;;;6277471;22;21013;-84
2023/03/01 09:21:58;;;;;;;16.88;8.23;;;;;;;;;;6302991;22;20020;-84
2023/03/01 09:24:24;;;;;;;17.38;7.88;;;;;;;;;;6274127;22;20031;-84
2023/03/01 09:26:52;;;;;;;16.65;7.38;;;;;;;;;;6303816;22;20023;-86
2023/03/01 09:29:19;;;;;;;16.13;7.22;;;;;;;;;;6303948;22;20491;-84
2023/03/01 09:31:45;;;;;;;19.20;7.68;;;;;;;;;;6303732;22;20051;-85
2023/03/01 09:34:13;;;;;;;14.27;5.65;;;;;;;;;;6303031;22;20062;-85
2023/03/01 09:36:39;;;;;;;13.02;6.38;;;;;;;;;;6277472;22;20469;-85
2023/03/01 09:39:06;;;;;;;13.70;6.78;;;;;;;;;;6277651;22;20023;-85
2023/03/01 09:41:51;;;;;;;12.93;6.50;;;;;;;;;;6276922;22;20072;-85
2023/03/01 09:44:26;;;;;;;12.82;5.97;;;;;;;;;;6301620;22;20031;-85
2023/03/01 09:46:53;;;;;;;12.93;6.50;;;;;;;;;;6304477;22;20034;-85
2023/03/01 09:49:25;;;;;;;14.52;6.45;;;;;;;;;;6303206;22;20107;-86
2023/03/01 09:52:00;;;;;;;12.63;6.05;;;;;;;;;;6277479;22;20014;-85
2023/03/01 09:54:27;;;;;;;10.70;5.43;;;;;;;;;;6273522;22;20459;-84
2023/03/01 09:57:00;;;;;;;11.23;4.57;;;;;;;;;;6301364;22;20031;-85
2023/03/01 09:59:30;;;;;;;11.30;5.35;;;;;;;;;;6277440;22;20538;-85
2023/03/01 10:02:03;;;;;;;9.57;4.27;;;;;;;;;;6301020;22;20462;-85
2023/03/01 10:04:42;;;;;;;10.25;4.95;;;;;;;;;;6299486;22;20490;-85
2023/03/01 10:07:18;;;;;;;13.95;5.07;;;;;;;;;;6302937;22;20667;-86
2023/03/01 10:09:45;;;;;;;10.48;4.40;;;;;;;;;;6304132;22;20047;-85
2023/03/01 10:12:13;;;;;;;10.57;4.75;;;;;;;;;;6301977;22;20031;-85
2023/03/01 10:14:58;;;;;;;9.73;4.78;;;;;;;;;;6297819;22;20024;-85
2023/03/01 10:17:33;;;;;;;11.35;4.15;;;;;;;;;;6300278;22;20499;-85
2023/03/01 10:20:16;;;;;;;10.07;4.10;;;;;;;;;;6301589;22;20039;-85
2023/03/01 10:22:46;;;;;;;8.82;4.32;;;;;;;;;;6301292;22;20027;-84
2023/03/01 10:25:13;;;;;;;8.27;4.57;;;;;;;;;;6300501;22;20023;-85
2023/03/01 10:27:51;;;;;;;9.45;4.50;;;;;;;;;;6301565;22;20090;-84
2023/03/01 10:30:26;;;;;;;9.70;4.32;;;;;;;;;;6301339;22;20074;-85
2023/03/01 10:32:53;;;;;;;6.90;3.70;;;;;;;;;;6300870;22;20027;-84
2023/03/01 10:35:20;;;;;;;7.15;4.00;;;;;;;;;;6272929;22;21052;-85
2023/03/01 10:37:56;;;;;;;10.18;4.25;;;;;;;;;;6300943;22;20464;-85
2023/03/01 10:40:23;;;;;;;8.50;3.80;;;;;;;;;;6300921;22;20130;-84
2023/03/01 10:42:49;;;;;;;7.22;3.35;;;;;;;;;;6299824;22;20030;-85
2023/03/01 10:45:24;;;;;;;7.75;3.50;;;;;;;;;;6303536;22;20047;-84
2023/03/01 10:48:04;;;;;;;5.93;3.10;;;;;;;;;;6302139;22;20031;-84
2023/03/01 10:50:30;;;;;;;7.25;3.30;;;;;;;;;;6302942;22;20047;-84
2023/03/01 10:53:01;;;;;;;7.25;3.28;;;;;;;;;;6302800;22;20016;-84
2023/03/01 10:55:27;;;;;;;;;;;;;;;;;;6301393;22;20078;-85
2023/03/01 10:58:06;;;;;;;6.43;3.08;;;;;;;;;;6300284;22;46593;-88
2023/03/01 11:00:32;;;;;;;8.65;2.95;;;;;;;;;;6301039;22;20028;-85
2023/03/01 11:02:59;;;;;;;7.03;3.28;;;;;;;;;;6300239;22;20119;-85
2023/03/01 11:05:25;;;;;;;6.25;3.00;;;;;;;;;;6302002;22;20058;-85
2023/03/01 11:07:53;;;;;;;6.20;2.63;;;;;;;;;;6299987;22;20471;-85
2023/03/01 11:10:24;;;;;;;6.70;2.83;;;;;;;;;;6300431;22;20027;-85
2023/03/01 11:12:50;;;;;;;;;;;;;;;;;;6272219;22;20172;-85
2023/03/01 11:15:24;;;;;;;7.70;2.85;;;;;;;;;;6297900;22;48402;-85
2023/03/01 11:17:50;;;;;;;6.50;2.67;;;;;;;;;;6299867;22;20406;-85
2023/03/01 11:20:29;;;;;;;5.75;2.83;;;;;;;;;;6298780;22;20036;-85
2023/03/01 11:23:16;;;;;;;6.53;2.95;;;;;;;;;;6298369;22;20852;-84
2023/03/01 11:25:47;;;;;;;8.75;3.25;;;;;;;;;;6270775;22;20023;-84
2023/03/01 11:28:16;;;;;;;6.95;2.88;;;;;;;;;;6300684;22;20034;-84
2023/03/01 11:30:57;;;;;;;7.72;2.80;;;;;;;;;;6299607;22;20177;-84
2023/03/01 11:33:53;;;;;;;7.40;2.95;;;;;;;;;;6274054;22;20023;-84
2023/03/01 11:36:28;;;;;;;5.70;2.88;;;;;;;;;;6272704;22;20020;-85
2023/03/01 11:38:55;;;;;;;6.05;3.08;;;;;;;;;;6300263;22;20023;-84
2023/03/01 11:41:25;;;;;;;7.60;3.17;;;;;;;;;;6298637;22;20095;-83
2023/03/01 11:43:58;;;;;;;6.72;3.10;;;;;;;;;;6300158;22;20102;-85
2023/03/01 11:46:36;;;;;;;7.18;3.17;;;;;;;;;;6299047;22;20026;-84
2023/03/01 11:49:03;;;;;;;6.75;3.00;;;;;;;;;;6271739;22;20086;-84
2023/03/01 11:51:29;;;;;;;7.35;3.13;;;;;;;;;;6299922;22;20031;-84
2023/03/01 11:53:59;;;;;;;7.88;3.50;;;;;;;;;;6298851;22;20345;-84
2023/03/01 11:56:33;;;;;;;5.82;2.95;;;;;;;;;;6299250;22;20125;-84
2023/03/01 11:59:18;;;;;;;6.95;3.25;;;;;;;;;;6298269;22;20023;-84
2023/03/01 12:02:04;;;;;;;7.22;3.20;;;;;;;;;;6271369;22;20024;-85
2023/03/01 12:04:36;;;;;;;7.45;3.38;;;;;;;;;;6297821;22;20023;-83
2023/03/01 12:07:14;;;;;;;7.90;3.72;;;;;;;;;;6273593;22;20095;-83
2023/03/01 12:10:03;;;;;;;7.80;3.80;;;;;;;;;;6299651;22;20900;-85
2023/03/01 12:12:38;;;;;;;8.13;3.35;;;;;;;;;;6300549;22;20487;-84
2023/03/01 12:15:07;;;;;;;7.43;3.30;;;;;;;;;;6298122;22;20058;-84
2023/03/01 12:17:49;;;;;;;6.07;3.00;;;;;;;;;;6300345;22;20027;-85
2023/03/01 12:20:18;;;;;;;7.15;3.15;;;;;;;;;;6297208;22;20051;-85
2023/03/01 12:23:03;;;;;;;6.63;3.13;;;;;;;;;;6297428;22;20019;-84
2023/03/01 12:25:49;;;;;;;8.73;3.47;;;;;;;;;;6275238;22;20467;-83
2023/03/01 12:28:21;;;;;;;8.63;3.20;;;;;;;;;;6299072;22;20051;-83
2023/03/01 12:30:56;;;;;;;6.18;3.00;;;;;;;;;;6298343;22;20056;-83
2023/03/01 12:33:45;;;;;;;8.23;3.50;;;;;;;;;;6297828;22;20027;-84
2023/03/01 12:36:11;;;;;;;7.95;3.38;;;;;;;;;;6298769;22;20063;-83
2023/03/01 12:38:43;;;;;;;7.18;3.10;;;;;;;;;;6299456;22;20032;-83
2023/03/01 12:41:21;;;;;;;7.10;3.15;;;;;;;;;;6299163;22;20093;-84
2023/03/01 12:43:54;;;;;;;10.20;3.85;;;;;;;;;;6297260;22;20031;-84
2023/03/01 12:46:25;;;;;;;6.60;3.45;;;;;;;;;;6271297;22;20115;-84
2023/03/01 12:49:12;;;;;;;6.82;3.05;;;;;;;;;;6269816;22;20975;-83
2023/03/01 12:51:39;;;;;;;14.18;3.35;;;;;;;;;;6297758;22;20032;-83
2023/03/01 12:54:16;;;;;;;9.23;3.80;;;;;;;;;;6297428;22;20024;-84
2023/03/01 12:56:44;;;;;;;8.32;3.63;;;;;;;;;;6272274;22;20025;-83
2023/03/01 12:59:25;;;;;;;9.23;3.17;;;;;;;;;;6299296;22;20027;-83
2023/03/01 13:01:55;;;;;;;7.50;3.42;;;;;;;;;;6271625;22;20019;-83
2023/03/01 13:04:36;;;;;;;6.15;3.70;;;;;;;;;;6298909;22;20103;-84
2023/03/01 13:07:02;;;;;;;8.38;3.42;;;;;;;;;;6300518;22;20034;-84
2023/03/01 13:09:30;;;;;;;12.02;3.60;;;;;;;;;;6299876;22;20024;-83
2023/03/01 13:11:56;;;;;;;7.57;3.53;;;;;;;;;;6299539;22;20099;-83
2023/03/01 13:14:23;;;;;;;6.25;3.28;;;;;;;;;;6297994;22;20038;-84
2023/03/01 13:16:50;;;;;;;7.63;3.72;;;;;;;;;;6272177;22;20367;-83
2023/03/01 13:19:21;;;;;;;6.88;3.60;;;;;;;;;;6299998;22;20035;-84
2023/03/01 13:21:48;;;;;;;;;;;;;;;;;;6298191;22;20110;-83
2023/03/01 13:24:23;;;;;;;6.47;3.30;;;;;;;;;;6296945;22;44576;-85
2023/03/01 13:27:13;;;;;;;8.60;3.15;;;;;;;;;;6299245;22;20035;-84
2023/03/01 13:29:44;;;;;;;7.32;3.38;;;;;;;;;;6264735;22;20047;-83
2023/03/01 13:32:28;;;;;;;6.68;3.28;;;;;;;;;;6272217;22;20028;-84
2023/03/01 13:35:14;;;;;;;6.50;3.15;;;;;;;;;;6300475;22;20074;-84
2023/03/01 13:37:41;;;;;;;7.07;3.47;;;;;;;;;;6299574;22;20090;-84
2023/03/01 13:40:20;;;;;;;6.63;2.90;;;;;;;;;;6301218;22;20028;-84
2023/03/01 13:42:47;;;;;;;7.40;3.13;;;;;;;;;;6298926;22;20081;-84
2023/03/01 13:45:42;;;;;;;7.40;2.97;;;;;;;;;;6276256;22;20020;-84
2023/03/01 13:48:16;;;;;;;8.38;3.13;;;;;;;;;;6299715;22;20497;-84
2023/03/01 13:50:48;;;;;;;6.07;2.95;;;;;;;;;;6299850;22;20106;-84
2023/03/01 13:53:17;;;;;;;5.57;2.78;;;;;;;;;;6299253;22;20075;-84
2023/03/01 13:55:58;;;;;;;6.68;3.08;;;;;;;;;;6272470;22;20031;-84
2023/03/01 13:58:32;;;;;;;6.07;3.10;;;;;;;;;;6301930;22;20829;-84
2023/03/01 14:01:19;;;;;;;6.60;3.28;;;;;;;;;;6300918;22;20545;-84
2023/03/01 14:03:45;;;;;;;10.70;3.50;;;;;;;;;;6298751;22;20028;-84
2023/03/01 14:06:17;;;;;;;5.90;3.30;;;;;;;;;;6300310;22;20098;-84
2023/03/01 14:08:47;;;;;;;6.68;3.15;;;;;;;;;;6300649;22;20048;-85
2023/03/01 14:11:13;;;;;;;5.88;3.30;;;;;;;;;;6301722;22;20460;-84
2023/03/01 14:14:04;;;;;;;6.53;3.38;;;;;;;;;;6271689;22;20096;-84
2023/03/01 14:16:37;;;;;;;7.43;3.50;;;;;;;;;;6274506;22;20075;-85
2023/03/01 14:19:03;;;;;;;6.55;3.25;;;;;;;;;;6273148;22;20019;-85
2023/03/01 14:21:30;;;;;;;6.07;3.00;;;;;;;;;;6274770;22;20054;-84
2023/03/01 14:23:57;;;;;;;5.63;3.00;;;;;;;;;;6271966;22;20160;-84
2023/03/01 14:26:23;;;;;;;10.20;3.13;;;;;;;;;;6300100;22;20143;-84
2023/03/01 14:28:50;;;;;;;5.35;2.88;;;;;;;;;;6299197;22;20027;-84
2023/03/01 14:31:46;;;;;;;9.93;3.28;;;;;;;;;;6298924;22;20034;-84
2023/03/01 14:34:20;;;;;;;6.53;3.20;;;;;;;;;;6286173;22;20030;-84
2023/03/01 14:36:46;;;;;;;7.05;3.08;;;;;;;;;;6299087;22;20798;-85
2023/03/01 14:39:17;;;;;;;7.18;3.05;;;;;;;;;;6299938;22;20016;-84
2023/03/01 14:41:44;;;;;;;7.20;3.15;;;;;;;;;;6301572;22;20027;-85
2023/03/01 14:44:22;;;;;;;8.00;2.95;;;;;;;;;;6300321;22;20510;-85
2023/03/01 14:46:52;;;;;;;6.75;3.20;;;;;;;;;;6273444;22;20023;-84
2023/03/01 14:49:20;;;;;;;6.22;3.00;;;;;;;;;;6301359;22;20028;-85
2023/03/01 14:51:57;;;;;;;6.15;3.10;;;;;;;;;;6300834;22;20031;-84
2023/03/01 14:54:25;;;;;;;7.88;3.72;;;;;;;;;;6299983;22;20033;-84
2023/03/01 14:56:52;;;;;;;7.00;3.05;;;;;;;;;;6302024;22;20012;-84
2023/03/01 14:59:23;;;;;;;7.07;3.30;;;;;;;;;;6300288;22;20531;-85
2023/03/01 15:01:50;;;;;;;7.55;3.15;;;;;;;;;;6300201;22;20031;-84
2023/03/01 15:04:18;;;;;;;6.07;3.00;;;;;;;;;;6300507;22;20098;-83